Terminal Aerodrome Forecast
Issued by NWS

Home | Current Version | Previous Version | Text Only | Print | Product List | Glossary On
Versions: 1 2 3 4 5 6 7 8 9 10 11 12 13 14 15 16 17 18 19 20 21 22 23 24 25 26 27 28 29 30
000
FTUS46 KOTX 022237 AAA
TAFCOE
TAF AMD
KCOE 022237Z 0223/0318 33010KT P6SM VCSH SCT025 OVC050
      TEMPO 0301/0304 5SM -SHSN BR OVC025
     FM030400 03014G19KT P6SM FEW025 BKN050 BKN100
     FM030800 03011KT P6SM FEW050 SCT200
      AMD LTD TO CLD AND VIS=

USA.gov is the U.S. government's official web portal to all federal, state and local government web resources and services.